createdAt,value
2022-12-25T00:01:28.339Z,98338.41
2022-12-25T00:03:56.610Z,98340.03
2022-12-25T00:06:23.250Z,98334.94
2022-12-25T00:08:49.730Z,98340.25
2022-12-25T00:11:17.612Z,98332.22
2022-12-25T00:13:44.313Z,98347.44
2022-12-25T00:16:22.356Z,98354.88
2022-12-25T00:18:48.947Z,98358.88
2022-12-25T00:21:15.597Z,98354.56
2022-12-25T00:23:42.222Z,98358.59
2022-12-25T00:26:13.611Z,98365.22
2022-12-25T00:28:40.108Z,98379.63
2022-12-25T00:31:11.455Z,98383.63
2022-12-25T00:33:39.030Z,98377.72
2022-12-25T00:36:06.327Z,98375.34
2022-12-25T00:38:33.385Z,98382.25
2022-12-25T00:40:59.865Z,98382.78
2022-12-25T00:43:26.328Z,98383.34
2022-12-25T00:45:59.839Z,98391.31
2022-12-25T00:48:26.487Z,98399.31
2022-12-25T00:50:54.199Z,98395.28
2022-12-25T00:53:20.672Z,98392.09
2022-12-25T00:55:54.191Z,98395.84
2022-12-25T00:58:20.695Z,98401.97
2022-12-25T01:00:47.712Z,98399.50
2022-12-25T01:03:14.320Z,98403.50
2022-12-25T01:05:40.793Z,98404.56
2022-12-25T01:08:07.319Z,98394.97
2022-12-25T01:10:33.768Z,98396.56
2022-12-25T01:13:00.251Z,98394.13
2022-12-25T01:15:26.716Z,98385.63
2022-12-25T01:17:53.184Z,98385.31
2022-12-25T01:20:19.659Z,98386.41
2022-12-25T01:22:46.104Z,98384.78
2022-12-25T01:25:12.647Z,98384.78
2022-12-25T01:27:40.779Z,98399.16
2022-12-25T01:30:07.650Z,98401.00
2022-12-25T01:32:34.148Z,98396.50
2022-12-25T01:35:00.663Z,98398.34
2022-12-25T01:37:27.118Z,98405.31
2022-12-25T01:39:53.588Z,98403.69
2022-12-25T01:42:21.298Z,98394.09
2022-12-25T01:44:47.593Z,98388.22
2022-12-25T01:47:14.082Z,98387.44
2022-12-25T01:49:42.476Z,98385.00
2022-12-25T01:52:17.484Z,98386.88
2022-12-25T01:54:47.872Z,98399.41
2022-12-25T01:57:19.493Z,98393.53
2022-12-25T01:59:46.109Z,98394.34
2022-12-25T02:02:12.632Z,98394.34
2022-12-25T02:04:48.510Z,98389.25
2022-12-25T02:07:19.341Z,98392.19
2022-12-25T02:09:45.817Z,98401.22
2022-12-25T02:12:17.870Z,98400.66
2022-12-25T02:14:44.323Z,98394.53
2022-12-25T02:17:23.503Z,98397.22
2022-12-25T02:20:11.208Z,98400.13
2022-12-25T02:23:04.529Z,98392.41
2022-12-25T02:25:30.818Z,98387.09
2022-12-25T02:28:30.864Z,98396.91
2022-12-25T02:31:07.049Z,98406.75
2022-12-25T02:34:01.582Z,98419.53
2022-12-25T02:36:32.747Z,98415.53
2022-12-25T02:39:18.431Z,98418.72
2022-12-25T02:41:45.130Z,98412.81
2022-12-25T02:44:33.917Z,98409.38
2022-12-25T02:47:19.443Z,98418.16
2022-12-25T02:50:04.483Z,98414.97
2022-12-25T02:52:49.590Z,98418.13
2022-12-25T02:55:39.672Z,98408.53
2022-12-25T02:58:41.532Z,98403.72
2022-12-25T03:01:29.749Z,98395.19
2022-12-25T03:04:16.033Z,98395.47
2022-12-25T03:06:42.840Z,98397.84
2022-12-25T03:09:31.005Z,98413.78
2022-12-25T03:12:02.401Z,98410.63
2022-12-25T03:14:47.489Z,98400.78
2022-12-25T03:17:13.987Z,98402.66
2022-12-25T03:19:59.031Z,98408.78
2022-12-25T03:22:48.501Z,98403.44
2022-12-25T03:25:34.178Z,98398.13
2022-12-25T03:28:00.751Z,98393.84
2022-12-25T03:31:11.431Z,98390.63
2022-12-25T03:34:34.051Z,98390.09
2022-12-25T03:37:28.322Z,98391.13
2022-12-25T03:39:57.691Z,98393.00
2022-12-25T03:42:54.347Z,98397.00
2022-12-25T03:45:55.091Z,98399.09
2022-12-25T03:48:40.064Z,98398.56
2022-12-25T03:51:28.632Z,98398.56
2022-12-25T03:54:15.420Z,98397.47
2022-12-25T03:57:00.478Z,98392.66
2022-12-25T03:59:45.859Z,98393.72
2022-12-25T04:02:30.789Z,98401.72
2022-12-25T04:05:16.038Z,98401.97
2022-12-25T04:08:01.031Z,98401.19
2022-12-25T04:10:45.784Z,98399.00
2022-12-25T04:13:30.593Z,98394.72
2022-12-25T04:16:16.330Z,98401.66
2022-12-25T04:19:01.607Z,98381.69
2022-12-25T04:21:46.468Z,98374.50
2022-12-25T04:24:31.969Z,98377.16
2022-12-25T04:27:16.819Z,98365.97
2022-12-25T04:30:01.459Z,98360.09
2022-12-25T04:32:46.286Z,98363.00
2022-12-25T04:35:31.484Z,98356.09
2022-12-25T04:37:57.932Z,98353.94
2022-12-25T04:40:24.422Z,98364.03
2022-12-25T04:42:51.487Z,98365.88
2022-12-25T04:45:17.990Z,98356.31
2022-12-25T04:47:44.464Z,98344.06
2022-12-25T04:50:11.044Z,98339.00
2022-12-25T04:52:38.307Z,98329.69
2022-12-25T04:55:05.367Z,98331.53
2022-12-25T04:57:32.475Z,98325.66
2022-12-25T04:59:58.941Z,98327.25
2022-12-25T05:02:25.848Z,98316.34
2022-12-25T05:04:52.528Z,98320.88
2022-12-25T05:07:18.990Z,98334.97
2022-12-25T05:09:45.466Z,98350.13
2022-12-25T05:12:11.919Z,98354.38
2022-12-25T05:14:39.927Z,98341.31
2022-12-25T05:17:07.875Z,98340.50
2022-12-25T05:19:34.673Z,98339.97
2022-12-25T05:22:01.131Z,98336.75
2022-12-25T05:24:27.852Z,98343.69
2022-12-25T05:26:54.591Z,98349.03
2022-12-25T05:29:21.047Z,98338.63
2022-12-25T05:31:47.563Z,98348.44
2022-12-25T05:34:14.095Z,98345.25
2022-12-25T05:36:40.720Z,98347.34
2022-12-25T05:39:07.183Z,98349.22
2022-12-25T05:41:34.764Z,98350.28
2022-12-25T05:44:01.555Z,98349.75
2022-12-25T05:46:28.040Z,98355.84
2022-12-25T05:48:54.505Z,98354.25
2022-12-25T05:51:21.044Z,98346.50
2022-12-25T05:53:47.511Z,98342.25
2022-12-25T05:56:14.003Z,98342.53
2022-12-25T05:58:40.628Z,98343.53
2022-12-25T06:01:13.853Z,98340.88
2022-12-25T06:03:40.501Z,98326.56
2022-12-25T06:06:07.350Z,98322.13
2022-12-25T06:08:34.432Z,98331.53
2022-12-25T06:11:04.736Z,98331.59
2022-12-25T06:13:31.726Z,98323.66
2022-12-25T06:15:59.068Z,98328.47
2022-12-25T06:18:26.394Z,98328.00
2022-12-25T06:20:53.141Z,98332.56
2022-12-25T06:23:19.634Z,98326.19
2022-12-25T06:25:46.164Z,98320.63
2022-12-25T06:28:12.842Z,98324.91
2022-12-25T06:30:39.320Z,98314.81
2022-12-25T06:33:05.780Z,98310.03
2022-12-25T06:35:32.574Z,98308.16
2022-12-25T06:37:59.075Z,98309.75
2022-12-25T06:40:25.548Z,98307.09
2022-12-25T06:42:52.310Z,98301.50
2022-12-25T06:45:18.785Z,98302.03
2022-12-25T06:47:45.478Z,98314.56
2022-12-25T06:50:11.960Z,98311.91
2022-12-25T06:52:38.419Z,98311.13
2022-12-25T06:55:06.383Z,98314.34
2022-12-25T06:57:32.972Z,98312.47
2022-12-25T06:59:59.487Z,98307.72
2022-12-25T07:02:26.117Z,98313.81
2022-12-25T07:04:52.712Z,98311.16
2022-12-25T07:07:19.934Z,98315.44
2022-12-25T07:09:46.392Z,98310.91
2022-12-25T07:12:18.419Z,98310.13
2022-12-25T07:14:48.546Z,98311.50
2022-12-25T07:17:16.112Z,98305.69
2022-12-25T07:19:45.205Z,98301.44
2022-12-25T07:22:12.541Z,98295.56
2022-12-25T07:24:39.086Z,98291.59
2022-12-25T07:27:05.568Z,98288.66
2022-12-25T07:29:32.307Z,98284.41
2022-12-25T07:31:58.872Z,98293.19
2022-12-25T07:34:25.409Z,98281.47
2022-12-25T07:36:51.874Z,98286.50
2022-12-25T07:39:18.369Z,98288.13
2022-12-25T07:41:44.875Z,98287.31
2022-12-25T07:44:11.329Z,98273.47
2022-12-25T07:46:37.801Z,98258.56
2022-12-25T07:49:04.302Z,98259.88
2022-12-25T07:51:30.789Z,98254.03
2022-12-25T07:53:57.253Z,98255.91
2022-12-25T07:56:23.773Z,98267.09
2022-12-25T07:58:50.340Z,98277.25
2022-12-25T08:01:20.302Z,98280.22
2022-12-25T08:03:57.401Z,98278.34
2022-12-25T08:06:26.740Z,98257.56
2022-12-25T08:08:53.242Z,98253.84
2022-12-25T08:11:19.756Z,98252.50
2022-12-25T08:13:46.235Z,98251.19
2022-12-25T08:16:12.776Z,98240.03
2022-12-25T08:18:39.420Z,98251.22
2022-12-25T08:21:10.722Z,98244.56
2022-12-25T08:23:38.659Z,98238.69
2022-12-25T08:26:05.971Z,98248.56
2022-12-25T08:28:32.901Z,98246.94
2022-12-25T08:30:59.437Z,98252.03
2022-12-25T08:33:25.928Z,98252.03
2022-12-25T08:35:52.414Z,98266.94
2022-12-25T08:38:18.908Z,98273.09
2022-12-25T08:40:45.363Z,98282.41
2022-12-25T08:43:11.858Z,98282.69
2022-12-25T08:45:38.419Z,98279.22
2022-12-25T08:48:04.895Z,98277.34
2022-12-25T08:50:31.339Z,98263.50
2022-12-25T08:52:57.801Z,98264.53
2022-12-25T08:55:24.261Z,98267.75
2022-12-25T08:57:53.209Z,98266.97
2022-12-25T09:00:19.918Z,98253.63
2022-12-25T09:02:46.492Z,98240.31
2022-12-25T09:05:13.104Z,98237.09
2022-12-25T09:07:39.606Z,98243.50
2022-12-25T09:10:06.744Z,98232.81
2022-12-25T09:12:33.272Z,98243.75
2022-12-25T09:14:59.726Z,98246.44
2022-12-25T09:17:26.204Z,98241.91
2022-12-25T09:19:52.677Z,98250.13
2022-12-25T09:22:19.425Z,98242.69
2022-12-25T09:24:45.906Z,98250.13
2022-12-25T09:27:12.431Z,98249.88
2022-12-25T09:29:39.161Z,98242.94
2022-12-25T09:32:06.045Z,98258.94
2022-12-25T09:34:32.732Z,98240.81
2022-12-25T09:36:59.229Z,98243.72
2022-12-25T09:39:26.822Z,98242.94
2022-12-25T09:41:56.559Z,98240.28
2022-12-25T09:44:25.525Z,98229.59
2022-12-25T09:47:11.965Z,98230.41
2022-12-25T09:49:52.852Z,98221.38
2022-12-25T09:52:25.613Z,98229.38
2022-12-25T09:55:19.732Z,98216.84
2022-12-25T09:57:49.766Z,98235.75
2022-12-25T10:00:18.091Z,98226.16
2022-12-25T10:03:14.525Z,98213.09
2022-12-25T10:06:17.455Z,98198.97
2022-12-25T10:09:06.183Z,98203.25
2022-12-25T10:11:41.736Z,98182.72
2022-12-25T10:14:18.566Z,98175.78
2022-12-25T10:17:18.468Z,98181.13
2022-12-25T10:19:56.485Z,98180.03
2022-12-25T10:22:50.155Z,98179.53
2022-12-25T10:25:18.666Z,98177.66
2022-12-25T10:27:45.170Z,98182.44
2022-12-25T10:30:23.369Z,98171.53
2022-12-25T10:32:49.904Z,98163.53
2022-12-25T10:35:18.630Z,98152.31
2022-12-25T10:37:48.795Z,98141.41
2022-12-25T10:40:24.470Z,98153.13
2022-12-25T10:42:57.308Z,98158.19
2022-12-25T10:45:23.773Z,98157.91
2022-12-25T10:47:59.528Z,98165.13
2022-12-25T10:50:28.711Z,98166.69
2022-12-25T10:53:04.720Z,98158.47
2022-12-25T10:55:31.975Z,98165.91
2022-12-25T10:57:58.624Z,98163.25
2022-12-25T11:00:30.209Z,98158.47
2022-12-25T11:02:57.050Z,98165.91
2022-12-25T11:05:25.738Z,98169.66
2022-12-25T11:07:56.201Z,98157.66
2022-12-25T11:10:33.925Z,98158.19
2022-12-25T11:13:00.483Z,98169.63
2022-12-25T11:15:40.421Z,98161.13
2022-12-25T11:18:25.926Z,98157.13
2022-12-25T11:21:04.006Z,98140.31
2022-12-25T11:23:31.478Z,98148.03
2022-12-25T11:26:05.156Z,98145.91
2022-12-25T11:28:32.757Z,98136.56
2022-12-25T11:31:07.836Z,98136.56
2022-12-25T11:33:59.171Z,98134.94
2022-12-25T11:36:32.728Z,98133.06
2022-12-25T11:39:16.628Z,98131.19
2022-12-25T11:41:49.512Z,98134.16
2022-12-25T11:44:26.474Z,98139.47
2022-12-25T11:46:55.238Z,98126.41
2022-12-25T11:49:25.406Z,98108.53
2022-12-25T11:51:54.612Z,98101.31
2022-12-25T11:54:29.345Z,98089.31
2022-12-25T11:57:05.051Z,98083.69
2022-12-25T11:59:35.383Z,98091.16
2022-12-25T12:02:22.265Z,98094.09
2022-12-25T12:04:50.928Z,98071.97
2022-12-25T12:07:26.384Z,98060.22
2022-12-25T12:10:16.112Z,98070.34
2022-12-25T12:13:27.111Z,98059.66
2022-12-25T12:15:53.622Z,98051.44
2022-12-25T12:18:28.577Z,98044.50
2022-12-25T12:21:21.804Z,98039.69
2022-12-25T12:24:12.423Z,98041.16
2022-12-25T12:26:40.831Z,98049.06
2022-12-25T12:29:08.991Z,98031.69
2022-12-25T12:31:42.474Z,98028.44
2022-12-25T12:34:18.605Z,98018.78
2022-12-25T12:36:45.038Z,98015.59
2022-12-25T12:39:20.749Z,98018.03
2022-12-25T12:41:48.059Z,98024.44
2022-12-25T12:44:14.608Z,98012.97
2022-12-25T12:46:53.062Z,98008.41
2022-12-25T12:49:24.922Z,97997.78
2022-12-25T12:52:02.155Z,98013.78
2022-12-25T12:54:28.585Z,98012.75
2022-12-25T12:57:01.864Z,98000.44
2022-12-25T12:59:40.159Z,97995.94
2022-12-25T13:02:13.457Z,97990.09
2022-12-25T13:04:53.779Z,97981.91
2022-12-25T13:07:32.369Z,97982.19
2022-12-25T13:10:13.350Z,97975.03
2022-12-25T13:12:39.788Z,97975.31
2022-12-25T13:15:11.983Z,97969.47
2022-12-25T13:17:38.452Z,97963.88
2022-12-25T13:20:05.494Z,97951.38
2022-12-25T13:22:35.614Z,97952.13
2022-12-25T13:25:05.208Z,97938.22
2022-12-25T13:27:32.684Z,97935.22
2022-12-25T13:29:59.156Z,97918.88
2022-12-25T13:32:30.052Z,97917.25
2022-12-25T13:34:56.519Z,97920.09
2022-12-25T13:37:24.420Z,97911.13
2022-12-25T13:39:56.912Z,97922.19
2022-12-25T13:42:26.700Z,97910.13
2022-12-25T13:44:58.608Z,97906.38
2022-12-25T13:47:37.783Z,97906.31
2022-12-25T13:50:15.785Z,97906.84
2022-12-25T13:52:42.440Z,97900.72
2022-12-25T13:55:16.396Z,97904.72
2022-12-25T13:57:50.384Z,97903.38
2022-12-25T14:00:41.491Z,97885.00
2022-12-25T14:03:08.010Z,97890.47
2022-12-25T14:05:42.981Z,97888.94
2022-12-25T14:08:14.786Z,97890.31
2022-12-25T14:10:41.221Z,97886.34
2022-12-25T14:13:11.163Z,97891.16
2022-12-25T14:15:38.239Z,97875.41
2022-12-25T14:18:04.668Z,97870.38
2022-12-25T14:20:34.968Z,97865.59
2022-12-25T14:23:01.395Z,97855.75
2022-12-25T14:25:35.420Z,97849.09
2022-12-25T14:28:05.326Z,97853.94
2022-12-25T14:30:31.802Z,97844.34
2022-12-25T14:32:58.508Z,97844.56
2022-12-25T14:35:25.320Z,97847.97
2022-12-25T14:37:56.811Z,97852.19
2022-12-25T14:40:30.954Z,97845.97
2022-12-25T14:42:58.056Z,97847.22
2022-12-25T14:45:32.139Z,97850.63
2022-12-25T14:48:04.161Z,97827.94
2022-12-25T14:50:34.317Z,97840.25
2022-12-25T14:53:00.851Z,97830.81
2022-12-25T14:55:28.400Z,97832.56
2022-12-25T14:58:00.087Z,97845.88
2022-12-25T15:00:35.461Z,97846.09
2022-12-25T15:03:03.064Z,97828.31
2022-12-25T15:05:34.401Z,97829.34
2022-12-25T15:08:21.403Z,97822.41
2022-12-25T15:11:03.891Z,97821.53
2022-12-25T15:13:30.860Z,97829.84
2022-12-25T15:16:01.558Z,97816.97
2022-12-25T15:18:31.679Z,97821.72
2022-12-25T15:20:58.167Z,97822.25
2022-12-25T15:23:25.626Z,97809.66
2022-12-25T15:25:52.333Z,97814.16
2022-12-25T15:28:18.920Z,97806.19
2022-12-25T15:30:45.440Z,97815.75
2022-12-25T15:33:14.510Z,97818.94
2022-12-25T15:35:40.976Z,97819.44
2022-12-25T15:38:07.470Z,97810.06
2022-12-25T15:40:34.671Z,97805.22
2022-12-25T15:43:10.732Z,97802.78
2022-12-25T15:45:40.832Z,97794.72
2022-12-25T15:48:07.289Z,97799.06
2022-12-25T15:50:36.754Z,97797.91
2022-12-25T15:53:03.369Z,97794.16
2022-12-25T15:55:29.866Z,97794.38
2022-12-25T15:57:56.336Z,97801.19
2022-12-25T16:00:22.849Z,97803.19
2022-12-25T16:02:49.883Z,97794.13
2022-12-25T16:05:16.652Z,97793.38
2022-12-25T16:07:43.115Z,97787.59
2022-12-25T16:10:16.247Z,97792.09
2022-12-25T16:12:43.051Z,97800.25
2022-12-25T16:15:11.298Z,97794.34
2022-12-25T16:17:37.752Z,97800.22
2022-12-25T16:20:04.467Z,97789.22
2022-12-25T16:22:31.851Z,97787.63
2022-12-25T16:24:58.343Z,97794.56
2022-12-25T16:27:25.251Z,97795.88
2022-12-25T16:29:51.720Z,97780.63
2022-12-25T16:32:18.453Z,97785.47
2022-12-25T16:34:45.112Z,97789.22
2022-12-25T16:37:11.572Z,97791.91
2022-12-25T16:39:38.436Z,97787.63
2022-12-25T16:42:05.104Z,97777.72
2022-12-25T16:44:31.615Z,97774.88
2022-12-25T16:46:58.297Z,97779.13
2022-12-25T16:49:24.819Z,97763.88
2022-12-25T16:51:51.315Z,97775.06
2022-12-25T16:54:18.097Z,97768.28
2022-12-25T16:56:44.555Z,97774.47
2022-12-25T16:59:11.293Z,97766.38
2022-12-25T17:02:24.536Z,97765.69
2022-12-25T17:04:51.075Z,97761.66
2022-12-25T17:07:17.744Z,97756.63
2022-12-25T17:09:47.351Z,97751.38
2022-12-25T17:12:13.767Z,97750.78
2022-12-25T17:14:40.196Z,97749.41
2022-12-25T17:17:06.615Z,97741.03
2022-12-25T17:19:33.079Z,97737.47
2022-12-25T17:21:59.754Z,97735.28
2022-12-25T17:24:27.027Z,97735.28
2022-12-25T17:26:53.472Z,97735.69
2022-12-25T17:29:22.449Z,97734.91
2022-12-25T17:31:49.414Z,97731.81
2022-12-25T17:34:18.888Z,97733.69
2022-12-25T17:36:45.307Z,97727.16
2022-12-25T17:39:11.832Z,97727.44
2022-12-25T17:41:38.318Z,97730.53
2022-12-25T17:44:04.989Z,97723.41
2022-12-25T17:46:31.634Z,97719.53
2022-12-25T17:48:59.153Z,97723.50
2022-12-25T17:51:26.085Z,97720.00
2022-12-25T17:53:54.093Z,97723.19
2022-12-25T17:56:20.975Z,97709.00
2022-12-25T17:58:51.640Z,97716.44
2022-12-25T18:01:18.339Z,97709.00
2022-12-25T18:03:45.156Z,97712.97
2022-12-25T18:06:14.320Z,97707.50
2022-12-25T18:08:41.246Z,97697.78
2022-12-25T18:11:09.992Z,97695.53
2022-12-25T18:13:37.040Z,97688.97
2022-12-25T18:16:04.470Z,97696.53
2022-12-25T18:18:31.243Z,97698.09
2022-12-25T18:20:57.719Z,97699.88
2022-12-25T18:23:24.756Z,97702.75
2022-12-25T18:25:51.436Z,97711.59
2022-12-25T18:28:18.575Z,97699.97
2022-12-25T18:30:45.140Z,97699.97
2022-12-25T18:33:11.798Z,97695.63
2022-12-25T18:35:39.249Z,97697.41
2022-12-25T18:38:05.984Z,97698.66
2022-12-25T18:40:32.537Z,97693.31
2022-12-25T18:43:03.236Z,97700.06
2022-12-25T18:45:30.498Z,97706.91
2022-12-25T18:47:56.977Z,97697.50
2022-12-25T18:50:23.465Z,97695.72
2022-12-25T18:52:51.580Z,97693.06
2022-12-25T18:55:18.658Z,97692.63
2022-12-25T18:57:45.111Z,97696.19
2022-12-25T19:00:11.684Z,97681.03
2022-12-25T19:02:38.173Z,97686.59
2022-12-25T19:05:05.663Z,97678.03
2022-12-25T19:07:32.180Z,97686.78
2022-12-25T19:09:58.660Z,97677.34
2022-12-25T19:12:25.116Z,97685.88
2022-12-25T19:14:51.719Z,97684.78
2022-12-25T19:17:18.251Z,97680.03
2022-12-25T19:19:44.873Z,97674.34
2022-12-25T19:22:11.532Z,97669.50
2022-12-25T19:24:38.017Z,97673.88
2022-12-25T19:27:04.556Z,97677.16
2022-12-25T19:29:31.388Z,97675.25
2022-12-25T19:31:57.988Z,97676.47
2022-12-25T19:34:24.562Z,97675.00
2022-12-25T19:36:51.074Z,97661.91
2022-12-25T19:39:17.530Z,97671.44
2022-12-25T19:41:44.528Z,97660.63
2022-12-25T19:44:11.369Z,97666.78
2022-12-25T19:46:40.370Z,97660.41
2022-12-25T19:49:07.720Z,97651.59
2022-12-25T19:51:39.270Z,97652.69
2022-12-25T19:54:05.949Z,97654.91
2022-12-25T19:56:32.621Z,97655.84
2022-12-25T19:58:59.289Z,97652.50
2022-12-25T20:01:27.199Z,97661.16
2022-12-25T20:03:54.027Z,97652.59
2022-12-25T20:06:25.922Z,97660.16
2022-12-25T20:08:57.264Z,97654.50
2022-12-25T20:11:25.040Z,97660.94
2022-12-25T20:13:51.587Z,97651.81
2022-12-25T20:16:18.136Z,97666.28
2022-12-25T20:18:44.611Z,97658.25
2022-12-25T20:21:14.005Z,97662.03
2022-12-25T20:23:41.606Z,97664.19
2022-12-25T20:26:08.134Z,97663.81
2022-12-25T20:28:35.193Z,97660.84
2022-12-25T20:31:33.316Z,97661.63
2022-12-25T20:34:04.021Z,97662.53
2022-12-25T20:36:36.291Z,97672.88
2022-12-25T20:39:04.018Z,97676.66
2022-12-25T20:41:30.684Z,97681.22
2022-12-25T20:43:57.287Z,97676.06
2022-12-25T20:46:24.787Z,97687.47
2022-12-25T20:48:52.749Z,97685.97
2022-12-25T20:51:21.412Z,97688.25
2022-12-25T20:53:47.977Z,97683.41
2022-12-25T20:56:15.673Z,97686.25
2022-12-25T20:58:42.180Z,97685.91
2022-12-25T21:01:13.614Z,97684.34
2022-12-25T21:03:40.473Z,97672.81
2022-12-25T21:06:07.360Z,97682.72
2022-12-25T21:08:33.967Z,97677.72
2022-12-25T21:11:00.876Z,97682.69
2022-12-25T21:13:29.379Z,97686.25
2022-12-25T21:15:56.363Z,97682.22
2022-12-25T21:18:23.547Z,97690.75
2022-12-25T21:20:52.172Z,97694.22
2022-12-25T21:23:18.812Z,97696.63
2022-12-25T21:25:45.724Z,97696.63
2022-12-25T21:28:12.470Z,97690.97
2022-12-25T21:30:39.004Z,97698.69
2022-12-25T21:33:23.954Z,97702.47
2022-12-25T21:35:50.443Z,97696.31
2022-12-25T21:38:17.446Z,97687.00
2022-12-25T21:40:43.933Z,97683.25
2022-12-25T21:43:11.550Z,97686.19
2022-12-25T21:45:38.022Z,97681.91
2022-12-25T21:48:04.672Z,97687.56
2022-12-25T21:50:49.654Z,97684.41
2022-12-25T21:53:16.785Z,97687.16
2022-12-25T21:55:43.277Z,97683.69
2022-12-25T21:58:09.739Z,97687.75
2022-12-25T22:00:36.194Z,97679.72
2022-12-25T22:03:02.801Z,97680.00
2022-12-25T22:05:48.011Z,97679.72
2022-12-25T22:08:14.536Z,97683.09
2022-12-25T22:10:41.018Z,97690.81
2022-12-25T22:13:27.658Z,97687.84
2022-12-25T22:16:20.616Z,97691.59
2022-12-25T22:19:05.756Z,97691.91
2022-12-25T22:21:32.233Z,97685.75
2022-12-25T22:23:58.711Z,97684.19
2022-12-25T22:26:25.170Z,97694.09
2022-12-25T22:28:51.630Z,97686.25
2022-12-25T22:31:18.156Z,97694.78
2022-12-25T22:33:44.643Z,97698.25
2022-12-25T22:36:11.104Z,97705.78
2022-12-25T22:38:37.575Z,97714.59
2022-12-25T22:41:07.212Z,97707.25
2022-12-25T22:44:06.765Z,97709.50
2022-12-25T22:46:20.143Z,97718.03
2022-12-25T22:48:46.615Z,97718.63
2022-12-25T22:51:13.063Z,97706.34
2022-12-25T22:53:39.529Z,97710.38
2022-12-25T22:56:08.211Z,97715.56
2022-12-25T22:58:34.718Z,97698.19
2022-12-25T23:01:01.348Z,97716.91
2022-12-25T23:03:27.899Z,97715.63
2022-12-25T23:05:55.577Z,97706.38
2022-12-25T23:08:22.931Z,97705.91
2022-12-25T23:10:49.412Z,97705.31
2022-12-25T23:13:34.764Z,97704.50
2022-12-25T23:16:01.282Z,97705.31
2022-12-25T23:18:46.162Z,97702.34
2022-12-25T23:21:35.093Z,97703.72
2022-12-25T23:24:40.345Z,97705.31
2022-12-25T23:27:06.813Z,97702.13
2022-12-25T23:29:36.026Z,97720.06
2022-12-25T23:32:10.219Z,97733.44
2022-12-25T23:34:37.421Z,97735.59
2022-12-25T23:37:04.012Z,97727.88
2022-12-25T23:39:30.624Z,97736.47
2022-12-25T23:41:57.485Z,97725.06
2022-12-25T23:44:26.301Z,97731.72
2022-12-25T23:46:53.706Z,97730.63
2022-12-25T23:49:21.431Z,97726.38
2022-12-25T23:51:47.901Z,97727.44
2022-12-25T23:54:19.357Z,97738.94
2022-12-25T23:56:45.811Z,97739.75
2022-12-25T23:59:12.738Z,97728.81
